Time;durP1;ratioP1;P1;durP2;ratioP2;P2;SDS_P1;SDS_P2;PMS_P1;PMS_P2;Temp;Humidity;BMP_temperature;BMP_pressure;BME280_temperature;BME280_humidity;BME280_pressure;Samples;Min_cycle;Max_cycle;Signal;HPM_P1;HPM_P2
2023/04/23 00:01:25;;;;;;;38.05;34.80;;;;;;;16.60;50.63;100623.97;5017063;28;20034;-82
2023/04/23 00:03:53;;;;;;;37.72;34.25;;;;;;;16.60;50.68;100623.97;5017063;28;20413;-82
2023/04/23 00:06:21;;;;;;;36.45;33.15;;;;;;;16.57;50.48;100616.38;5016946;28;20040;-82
2023/04/23 00:08:46;;;;;;;36.58;33.13;;;;;;;16.57;50.90;100610.09;5017141;28;20512;-82
2023/04/23 00:11:12;;;;;;;36.13;33.00;;;;;;;16.55;51.02;100612.28;5017116;28;20069;-82
2023/04/23 00:13:38;;;;;;;35.03;31.45;;;;;;;16.54;50.81;100611.50;5017072;28;20077;-80
2023/04/23 00:16:04;;;;;;;34.17;31.27;;;;;;;16.53;50.90;100603.59;5016810;28;20030;-83
2023/04/23 00:18:31;;;;;;;36.72;33.60;;;;;;;16.50;50.83;100604.97;5016878;28;20104;-82
2023/04/23 00:20:56;;;;;;;37.90;34.85;;;;;;;16.48;50.77;100604.47;5016852;28;20050;-82
2023/04/23 00:23:22;;;;;;;37.00;33.63;;;;;;;16.48;50.63;100606.34;5016430;28;20052;-83
2023/04/23 00:25:48;;;;;;;34.63;31.23;;;;;;;16.46;50.64;100611.28;5016336;28;20102;-81
2023/04/23 00:28:14;;;;;;;34.90;31.85;;;;;;;16.43;51.00;100613.50;5017086;28;20041;-82
2023/04/23 00:30:39;;;;;;;37.08;33.28;;;;;;;16.43;51.08;100610.75;5017202;28;20029;-83
2023/04/23 00:33:05;;;;;;;35.10;31.88;;;;;;;16.41;50.93;100607.50;5016135;28;20034;-82
2023/04/23 00:35:30;;;;;;;34.15;31.40;;;;;;;16.39;50.62;100601.53;5016787;28;20044;-81
2023/04/23 00:37:55;;;;;;;36.20;32.97;;;;;;;16.38;50.78;100605.34;5016639;28;20030;-82
2023/04/23 00:40:22;;;;;;;35.90;32.30;;;;;;;16.37;50.99;100594.72;5016667;28;20374;-82
2023/04/23 00:42:51;;;;;;;36.08;33.20;;;;;;;16.36;50.83;100596.66;5016478;28;20041;-81
2023/04/23 00:45:17;;;;;;;34.20;30.88;;;;;;;16.34;50.85;100587.94;5016934;28;20060;-81
2023/04/23 00:47:42;;;;;;;35.35;32.00;;;;;;;16.32;51.04;100579.22;5016045;28;20038;-82
2023/04/23 00:50:08;;;;;;;35.65;32.65;;;;;;;16.31;50.59;100579.53;5016116;28;20029;-81
2023/04/23 00:52:34;;;;;;;35.45;32.20;;;;;;;16.29;50.95;100574.34;5016008;28;20520;-82
2023/04/23 00:55:00;;;;;;;38.65;35.10;;;;;;;16.29;50.57;100573.53;5015859;28;20113;-81
2023/04/23 00:57:26;;;;;;;33.25;30.38;;;;;;;16.26;50.84;100572.19;5015972;28;20065;-82
2023/04/23 00:59:54;;;;;;;35.88;32.65;;;;;;;16.27;50.90;100570.28;5015939;28;20026;-82
2023/04/23 01:02:20;;;;;;;33.25;30.25;;;;;;;16.23;50.77;100562.69;4998238;28;20120;-82
2023/04/23 01:04:50;;;;;;;33.50;30.63;;;;;;;16.24;50.98;100568.94;4998327;28;20042;-82
2023/04/23 01:07:15;;;;;;;33.60;30.92;;;;;;;16.22;50.72;100571.13;5015684;28;20509;-81
2023/04/23 01:09:41;;;;;;;34.83;31.70;;;;;;;16.20;50.87;100563.25;5015690;28;20042;-82
2023/04/23 01:12:08;;;;;;;33.17;30.45;;;;;;;16.19;50.77;100560.81;5015678;28;20117;-82
2023/04/23 01:14:33;;;;;;;35.83;32.65;;;;;;;16.19;50.54;100558.06;5015813;28;20054;-82
2023/04/23 01:16:59;;;;;;;34.50;31.48;;;;;;;16.18;51.00;100561.91;5015541;28;20092;-81
2023/04/23 01:19:25;;;;;;;35.63;32.60;;;;;;;16.17;50.86;100557.53;5016072;28;20061;-81
2023/04/23 01:21:52;;;;;;;36.15;32.95;;;;;;;16.16;50.87;100561.38;5015710;28;20041;-82
2023/04/23 01:24:17;;;;;;;34.70;31.67;;;;;;;16.14;50.49;100552.66;5015346;28;20469;-82
2023/04/23 01:26:43;;;;;;;33.92;31.13;;;;;;;16.12;50.78;100558.38;5015753;28;20061;-82
2023/04/23 01:29:10;;;;;;;34.50;31.55;;;;;;;16.11;50.62;100553.25;5015281;28;20034;-82
2023/04/23 01:31:36;;;;;;;33.13;30.13;;;;;;;16.11;51.04;100553.25;5015312;28;20476;-82
2023/04/23 01:34:01;;;;;;;35.00;31.92;;;;;;;16.09;50.49;100556.22;5015222;28;20108;-81
2023/04/23 01:36:27;;;;;;;34.15;30.92;;;;;;;16.09;50.67;100549.97;5015596;28;20093;-81
2023/04/23 01:38:53;;;;;;;35.05;32.13;;;;;;;16.08;50.74;100545.63;5015776;28;20034;-80
2023/04/23 01:41:21;;;;;;;34.50;31.58;;;;;;;16.06;51.14;100551.38;5015225;28;20030;-82
2023/04/23 01:43:46;;;;;;;33.17;30.35;;;;;;;16.06;50.82;100553.28;5014997;28;20036;-76
2023/04/23 01:46:12;;;;;;;32.45;29.77;;;;;;;16.05;50.58;100551.63;5014992;28;20033;-82
2023/04/23 01:48:38;;;;;;;33.20;30.50;;;;;;;16.03;50.85;100551.94;5014626;28;20037;-82
2023/04/23 01:51:04;;;;;;;34.80;31.83;;;;;;;16.02;50.58;100556.53;5014796;28;20061;-82
2023/04/23 01:53:29;;;;;;;33.00;30.50;;;;;;;16.00;50.81;100547.88;5015297;28;20053;-82
2023/04/23 01:55:55;;;;;;;32.47;29.77;;;;;;;16.01;50.71;100544.03;5014491;28;20482;-82
2023/04/23 01:58:22;;;;;;;32.70;30.00;;;;;;;15.99;51.08;100548.13;5014717;28;20367;-81
2023/04/23 02:00:48;;;;;;;34.25;30.95;;;;;;;15.98;50.97;100558.22;5014865;28;20041;-81
2023/04/23 02:03:14;;;;;;;33.30;30.58;;;;;;;15.97;50.74;100553.84;4997430;28;20057;-81
2023/04/23 02:05:40;;;;;;;32.22;29.73;;;;;;;15.96;51.17;100557.69;5014954;28;20405;-81
2023/04/23 02:08:06;;;;;;;33.90;31.23;;;;;;;15.95;50.58;100556.06;5014390;28;20026;-81
2023/04/23 02:10:32;;;;;;;33.97;31.17;;;;;;;15.94;51.00;100545.47;5014506;28;20030;-81
2023/04/23 02:12:58;;;;;;;32.85;30.17;;;;;;;15.92;51.11;100551.16;5013604;28;20029;-81
2023/04/23 02:15:24;;;;;;;31.65;28.95;;;;;;;15.91;51.11;100546.84;5014790;28;20068;-82
2023/04/23 02:17:51;;;;;;;32.42;29.77;;;;;;;15.90;50.88;100547.94;5014774;28;20074;-76
2023/04/23 02:20:17;;;;;;;32.45;29.55;;;;;;;15.90;51.05;100545.22;5014465;28;20515;-80
2023/04/23 02:22:43;;;;;;;32.28;29.73;;;;;;;15.88;50.87;100550.13;5013930;28;20394;-81
2023/04/23 02:25:09;;;;;;;33.13;30.42;;;;;;;15.87;50.81;100556.66;5014062;28;20029;-81
2023/04/23 02:27:35;;;;;;;31.90;29.20;;;;;;;15.87;50.91;100537.59;5014451;28;20472;-81
2023/04/23 02:30:01;;;;;;;33.10;30.13;;;;;;;15.86;50.74;100552.31;5014182;28;20477;-82
2023/04/23 02:32:26;;;;;;;31.48;29.02;;;;;;;15.85;50.63;100547.97;5014791;28;20029;-80
2023/04/23 02:34:53;;;;;;;33.05;30.35;;;;;;;15.85;50.90;100547.13;5014150;28;20363;-79
2023/04/23 02:37:18;;;;;;;30.48;28.17;;;;;;;15.84;50.56;100540.88;5014162;28;20381;-81
2023/04/23 02:39:44;;;;;;;33.03;30.38;;;;;;;15.82;51.01;100532.19;4996409;28;20021;-81
2023/04/23 02:42:10;;;;;;;35.05;32.10;;;;;;;15.82;50.94;100532.19;5013963;28;20045;-81
2023/04/23 02:44:35;;;;;;;33.08;30.73;;;;;;;15.80;50.79;100531.66;4996539;28;20034;-81
2023/04/23 02:47:01;;;;;;;33.38;30.77;;;;;;;15.79;50.89;100530.03;4996633;28;20041;-81
2023/04/23 02:49:26;;;;;;;30.33;27.98;;;;;;;15.78;50.99;100522.97;5012812;28;20037;-82
2023/04/23 02:51:55;;;;;;;31.65;29.23;;;;;;;15.76;50.86;100525.97;5013667;28;20038;-82
2023/04/23 02:54:20;;;;;;;31.30;28.60;;;;;;;15.75;51.08;100531.72;5013886;28;20108;-81
2023/04/23 02:56:45;;;;;;;33.08;30.48;;;;;;;15.75;50.77;100528.97;5014428;28;20058;-80
2023/04/23 02:59:11;;;;;;;32.15;29.58;;;;;;;15.74;50.72;100533.59;5013564;28;20037;-81
2023/04/23 03:01:36;;;;;;;30.27;28.00;;;;;;;15.74;51.08;100535.50;5014061;28;20141;-81
2023/04/23 03:04:02;;;;;;;31.38;28.92;;;;;;;15.72;50.86;100529.53;5014154;28;20076;-81
2023/04/23 03:06:30;;;;;;;29.40;27.38;;;;;;;15.72;50.84;100522.19;4996860;28;20026;-80
2023/04/23 03:08:55;;;;;;;30.05;27.42;;;;;;;15.70;50.72;100527.09;4996498;28;20109;-80
2023/04/23 03:11:21;;;;;;;30.65;28.20;;;;;;;15.69;51.16;100525.44;5013952;28;20066;-81
2023/04/23 03:13:47;;;;;;;30.23;27.80;;;;;;;15.68;51.24;100518.38;5014189;28;20042;-81
2023/04/23 03:16:13;;;;;;;30.88;28.48;;;;;;;15.69;50.91;100519.16;5013702;28;20474;-83
2023/04/23 03:18:38;;;;;;;30.30;28.17;;;;;;;15.67;51.10;100519.44;5013075;28;20049;-80
2023/04/23 03:21:03;;;;;;;31.48;28.83;;;;;;;15.67;50.90;100518.63;5013586;28;20123;-82
2023/04/23 03:23:29;;;;;;;29.05;26.98;;;;;;;15.66;51.24;100514.28;5013802;28;20054;-80
2023/04/23 03:25:54;;;;;;;30.25;27.77;;;;;;;15.66;51.04;100514.28;5014693;28;20034;-82
2023/04/23 03:28:20;;;;;;;28.83;26.55;;;;;;;15.64;50.62;100521.94;5014229;28;20060;-82
2023/04/23 03:30:46;;;;;;;29.15;26.95;;;;;;;15.64;50.67;100519.22;5014503;28;20026;-81
2023/04/23 03:33:11;;;;;;;30.75;27.98;;;;;;;15.63;50.82;100518.41;4996549;28;20076;-80
2023/04/23 03:35:36;;;;;;;30.30;27.83;;;;;;;15.61;50.89;100512.41;5014150;28;20474;-82
2023/04/23 03:38:02;;;;;;;31.10;28.25;;;;;;;15.61;51.20;100515.13;5013721;28;20038;-81
2023/04/23 03:40:27;;;;;;;29.17;26.98;;;;;;;15.62;50.91;100515.94;5013383;28;20030;-81
2023/04/23 03:42:53;;;;;;;30.55;28.13;;;;;;;15.60;51.10;100516.25;5013461;28;20168;-81
2023/04/23 03:45:18;;;;;;;30.33;28.13;;;;;;;15.59;51.16;100515.41;5013357;28;20068;-79
2023/04/23 03:47:43;;;;;;;29.60;27.35;;;;;;;15.58;50.91;100526.59;5013742;28;20045;-81
2023/04/23 03:50:12;;;;;;;31.73;29.25;;;;;;;15.57;51.24;100523.06;5013363;28;20072;-81
2023/04/23 03:52:37;;;;;;;28.92;26.60;;;;;;;15.56;51.20;100524.16;5013650;28;20038;-80
2023/04/23 03:55:03;;;;;;;30.70;28.10;;;;;;;15.56;50.85;100515.97;4996658;28;20366;-81
2023/04/23 03:57:28;;;;;;;29.80;27.20;;;;;;;15.56;51.10;100515.16;5013518;28;20062;-81
2023/04/23 03:59:54;;;;;;;29.70;27.40;;;;;;;15.55;51.13;100519.00;5013336;28;20135;-82
2023/04/23 04:02:20;;;;;;;29.05;26.77;;;;;;;15.54;51.21;100522.78;4999764;28;20145;-81
2023/04/23 04:04:48;;;;;;;29.90;27.50;;;;;;;15.53;51.16;100527.44;5016233;28;20036;-81
2023/04/23 04:07:13;;;;;;;30.10;27.65;;;;;;;15.53;50.96;100522.00;5017629;28;20038;-79
2023/04/23 04:09:38;;;;;;;28.65;26.42;;;;;;;15.52;50.96;100525.81;5017847;28;20447;-82
2023/04/23 04:12:04;;;;;;;29.30;27.10;;;;;;;15.52;50.85;100524.97;5017339;28;20080;-80
2023/04/23 04:14:31;;;;;;;28.55;26.45;;;;;;;15.52;50.88;100531.25;5017425;28;20034;-82
2023/04/23 04:16:56;;;;;;;28.90;26.88;;;;;;;15.51;50.95;100526.09;5017338;28;20034;-81
2023/04/23 04:19:22;;;;;;;31.20;28.85;;;;;;;15.50;50.82;100527.19;5016647;28;20514;-80
2023/04/23 04:21:47;;;;;;;29.40;27.08;;;;;;;15.49;50.95;100529.06;5016911;28;20038;-81
2023/04/23 04:24:13;;;;;;;29.02;26.83;;;;;;;15.48;50.83;100519.28;5016615;28;20069;-81
2023/04/23 04:26:39;;;;;;;27.33;25.50;;;;;;;15.48;51.19;100518.50;5016407;28;20034;-77
2023/04/23 04:29:04;;;;;;;28.55;26.45;;;;;;;15.47;51.09;100520.41;4998784;28;20026;-81
2023/04/23 04:31:29;;;;;;;29.05;26.95;;;;;;;15.47;51.13;100514.13;5016407;28;20068;-82
2023/04/23 04:33:56;;;;;;;27.92;25.92;;;;;;;15.46;50.89;100515.22;5016483;28;20397;-81
2023/04/23 04:36:24;;;;;;;29.75;27.65;;;;;;;15.46;51.08;100516.03;5016522;28;20095;-80
2023/04/23 04:38:50;;;;;;;29.67;27.33;;;;;;;15.44;50.83;100511.97;5016941;28;20034;-81
2023/04/23 04:41:16;;;;;;;29.08;26.80;;;;;;;15.44;50.84;100520.13;5017232;28;20350;-81
2023/04/23 04:43:42;;;;;;;29.45;27.15;;;;;;;15.44;50.97;100520.13;5017820;28;20037;-80
2023/04/23 04:46:10;;;;;;;28.63;26.63;;;;;;;15.42;50.93;100517.72;5017548;28;20030;-81
2023/04/23 04:48:36;;;;;;;28.50;26.40;;;;;;;15.40;50.93;100522.63;5016359;28;20084;-81
2023/04/23 04:51:01;;;;;;;28.65;26.25;;;;;;;15.40;51.03;100513.63;5016375;28;20038;-81
2023/04/23 04:53:27;;;;;;;27.65;25.60;;;;;;;15.39;51.27;100520.16;5016575;28;20462;-80
2023/04/23 04:55:52;;;;;;;28.90;26.77;;;;;;;15.39;51.24;100528.31;4998329;28;20034;-80
2023/04/23 04:58:17;;;;;;;28.23;26.33;;;;;;;15.38;51.17;100530.25;5016096;28;20088;-80
2023/04/23 05:00:43;;;;;;;29.30;27.10;;;;;;;15.37;51.28;100525.88;5015927;28;20052;-80
2023/04/23 05:03:08;;;;;;;30.05;27.80;;;;;;;15.37;51.13;100528.59;5015652;28;20458;-80
2023/04/23 05:05:34;;;;;;;27.85;25.88;;;;;;;15.35;51.22;100515.28;5015974;28;20088;-80
2023/04/23 05:08:01;;;;;;;26.75;24.70;;;;;;;15.35;51.22;100519.91;4998863;28;20042;-81
2023/04/23 05:10:27;;;;;;;27.38;25.40;;;;;;;15.34;51.32;100519.09;5015884;28;20041;-81
2023/04/23 05:12:55;;;;;;;27.60;25.60;;;;;;;15.34;51.05;100515.56;5015134;28;20040;-81
2023/04/23 05:15:20;;;;;;;28.45;26.17;;;;;;;15.33;51.06;100520.19;5014494;28;20046;-81
2023/04/23 05:17:46;;;;;;;27.35;25.30;;;;;;;15.33;51.00;100522.09;5015947;28;20113;-80
2023/04/23 05:20:11;;;;;;;29.20;26.92;;;;;;;15.32;50.94;100517.72;5016010;28;20038;-80
2023/04/23 05:22:41;;;;;;;27.42;25.63;;;;;;;15.31;51.14;100516.13;5015850;28;20590;-80
2023/04/23 05:25:08;;;;;;;28.35;26.13;;;;;;;15.30;51.10;100528.91;5015464;28;20030;-80
2023/04/23 05:27:33;;;;;;;27.08;24.98;;;;;;;15.30;51.16;100525.38;5015589;28;20474;-81
2023/04/23 05:30:01;;;;;;;29.23;26.85;;;;;;;15.30;51.05;100533.56;5015497;28;20045;-81
2023/04/23 05:32:26;;;;;;;26.90;25.02;;;;;;;15.29;51.00;100531.91;5015583;28;20038;-80
2023/04/23 05:34:52;;;;;;;28.77;26.58;;;;;;;15.28;51.10;100522.13;5015762;28;20041;-80
2023/04/23 05:37:17;;;;;;;28.42;26.35;;;;;;;15.28;50.95;100517.50;4997674;28;20121;-80
2023/04/23 05:39:43;;;;;;;26.98;25.27;;;;;;;15.27;51.10;100520.47;5015234;28;20459;-81
2023/04/23 05:42:08;;;;;;;27.88;25.88;;;;;;;15.26;50.95;100525.13;4997539;28;20061;-78
2023/04/23 05:44:34;;;;;;;26.88;25.00;;;;;;;15.26;51.10;100524.31;5014980;28;20038;-79
2023/04/23 05:46:59;;;;;;;28.30;26.30;;;;;;;15.25;50.98;100512.63;5015644;28;20060;-82
2023/04/23 05:49:26;;;;;;;28.02;26.25;;;;;;;15.26;51.12;100524.31;5014999;28;20030;-81
2023/04/23 05:51:51;;;;;;;26.25;24.70;;;;;;;15.25;50.93;100518.06;4998371;28;20038;-81
2023/04/23 05:54:17;;;;;;;27.65;25.35;;;;;;;15.26;51.08;100524.31;5015032;28;20041;-81
2023/04/23 05:56:43;;;;;;;27.05;25.00;;;;;;;15.25;51.27;100514.53;5015480;28;20041;-80
2023/04/23 05:59:08;;;;;;;26.85;24.98;;;;;;;15.26;51.10;100513.44;5014858;28;20026;-83
2023/04/23 06:01:34;;;;;;;26.50;24.67;;;;;;;15.25;51.13;100511.81;5014687;28;20029;-80
2023/04/23 06:04:00;;;;;;;26.83;24.95;;;;;;;15.26;51.10;100507.97;5015189;28;20033;-81
2023/04/23 06:06:26;;;;;;;27.88;25.92;;;;;;;15.25;51.10;100506.38;5014873;28;20026;-80
2023/04/23 06:08:52;;;;;;;25.00;23.33;;;;;;;15.26;50.77;100513.44;5014592;28;20117;-80
2023/04/23 06:11:17;;;;;;;27.63;25.65;;;;;;;15.26;51.12;100508.78;5014817;28;20105;-80
2023/04/23 06:13:43;;;;;;;25.70;23.77;;;;;;;15.25;51.03;100501.72;5014232;28;20044;-80
2023/04/23 06:16:08;;;;;;;25.75;23.95;;;;;;;15.26;51.04;100497.09;5014585;28;20057;-80
2023/04/23 06:18:36;;;;;;;26.60;24.90;;;;;;;15.26;51.12;100499.81;5014811;28;20060;-80
2023/04/23 06:21:03;;;;;;;26.52;24.63;;;;;;;15.26;51.15;100492.47;5014909;28;20038;-81
2023/04/23 06:23:29;;;;;;;27.42;25.55;;;;;;;15.27;50.99;100494.09;5014048;28;20059;-82
2023/04/23 06:25:55;;;;;;;26.67;24.67;;;;;;;15.29;51.24;100496.53;5014101;28;20501;-82
2023/04/23 06:28:20;;;;;;;28.30;26.20;;;;;;;15.29;51.24;100497.34;5014200;28;20042;-80
2023/04/23 06:30:46;;;;;;;26.08;24.38;;;;;;;15.31;50.96;100488.91;5014616;28;20034;-82
2023/04/23 06:33:12;;;;;;;25.63;24.05;;;;;;;15.32;51.27;100493.25;5014287;28;20038;-81
2023/04/23 06:35:37;;;;;;;24.98;23.48;;;;;;;15.31;50.82;100484.28;5014439;28;20370;-81
2023/04/23 06:38:02;;;;;;;27.98;25.98;;;;;;;15.33;50.96;100486.72;5013909;28;20030;-82
2023/04/23 06:40:28;;;;;;;27.02;25.13;;;;;;;15.33;50.83;100482.09;5014023;28;20458;-82
2023/04/23 06:42:54;;;;;;;25.80;24.02;;;;;;;15.34;51.11;100489.16;5013960;28;20026;-82
2023/04/23 06:45:20;;;;;;;28.98;26.80;;;;;;;15.36;51.08;100494.31;5013623;28;20029;-83
2023/04/23 06:47:48;;;;;;;28.92;26.65;;;;;;;15.38;51.15;100489.41;4996609;28;20160;-82
2023/04/23 06:50:13;;;;;;;28.48;26.58;;;;;;;15.39;51.02;100488.31;4996560;28;20034;-82
2023/04/23 06:52:39;;;;;;;25.73;23.85;;;;;;;15.41;50.98;100490.75;5014099;28;20044;-81
2023/04/23 06:55:05;;;;;;;26.83;25.10;;;;;;;15.43;51.17;100491.31;5013975;28;20034;-81
2023/04/23 06:57:30;;;;;;;27.85;25.83;;;;;;;15.44;51.34;100477.38;5013858;28;20079;-83
2023/04/23 06:59:55;;;;;;;27.83;25.52;;;;;;;15.48;51.31;100478.47;5014359;28;20065;-83
2023/04/23 07:02:21;;;;;;;29.08;26.85;;;;;;;15.49;51.58;100484.72;5014231;28;20485;-82
2023/04/23 07:04:46;;;;;;;25.77;24.00;;;;;;;15.51;51.29;100485.25;5014259;28;20466;-83
2023/04/23 07:07:12;;;;;;;24.10;22.70;;;;;;;15.53;51.52;100474.91;5014149;28;20039;-84
2023/04/23 07:09:37;;;;;;;25.88;24.17;;;;;;;15.55;51.29;100481.69;5014072;28;20109;-84
2023/04/23 07:12:03;;;;;;;25.27;23.77;;;;;;;15.58;51.51;100483.03;5014547;28;20454;-83
2023/04/23 07:14:28;;;;;;;27.30;25.52;;;;;;;15.62;51.57;100477.81;5013638;28;20030;-84
2023/04/23 07:16:53;;;;;;;25.13;23.38;;;;;;;15.64;51.60;100476.44;4996209;28;20044;-84
2023/04/23 07:19:19;;;;;;;27.33;25.48;;;;;;;15.66;51.83;100471.53;5014143;28;20480;-82
2023/04/23 07:21:47;;;;;;;27.40;25.40;;;;;;;15.72;51.84;100465.00;5013745;28;20471;-82
2023/04/23 07:24:12;;;;;;;26.75;25.10;;;;;;;15.75;52.04;100464.44;5012816;28;20038;-82
2023/04/23 07:26:37;;;;;;;26.38;24.58;;;;;;;15.78;51.83;100463.84;5013705;28;20092;-81
2023/04/23 07:29:05;;;;;;;25.60;23.98;;;;;;;15.84;51.89;100461.09;5013745;28;20448;-81
2023/04/23 07:31:30;;;;;;;28.05;26.02;;;;;;;15.88;51.75;100456.72;5013486;28;20105;-85
2023/04/23 07:33:56;;;;;;;27.27;25.35;;;;;;;15.91;52.13;100451.50;5013187;28;20125;-84
2023/04/23 07:36:22;;;;;;;25.17;23.65;;;;;;;15.97;52.08;100460.44;5015881;28;20073;-83
2023/04/23 07:38:47;;;;;;;25.63;24.02;;;;;;;16.01;52.16;100453.31;5017536;28;20368;-81
2023/04/23 07:41:13;;;;;;;26.15;24.40;;;;;;;16.06;52.48;100458.72;5018357;28;20044;-81
2023/04/23 07:43:39;;;;;;;28.27;26.38;;;;;;;16.11;51.82;100461.41;5017460;28;20108;-82
2023/04/23 07:46:06;;;;;;;26.02;24.48;;;;;;;16.17;52.34;100454.00;5017204;28;20038;-81
2023/04/23 07:48:33;;;;;;;27.85;26.05;;;;;;;16.22;52.35;100453.94;5017162;28;20042;-80
2023/04/23 07:50:59;;;;;;;28.15;26.15;;;;;;;16.29;52.60;100448.16;5017634;28;20038;-82
2023/04/23 07:53:27;;;;;;;26.70;25.02;;;;;;;16.35;52.34;100458.69;5017086;28;20121;-81
2023/04/23 07:55:53;;;;;;;27.30;25.52;;;;;;;16.41;52.54;100456.75;5017386;28;20038;-82
2023/04/23 07:58:18;;;;;;;28.95;27.30;;;;;;;16.47;52.57;100457.50;5017030;28;20088;-81
2023/04/23 08:00:43;;;;;;;27.52;25.83;;;;;;;16.53;52.54;100454.47;4999623;28;20438;-81
2023/04/23 08:03:09;;;;;;;27.73;25.98;;;;;;;16.61;52.95;100447.56;5017033;28;20040;-80
2023/04/23 08:05:36;;;;;;;29.10;27.30;;;;;;;16.67;52.93;100440.91;5016841;28;20443;-80
2023/04/23 08:08:02;;;;;;;26.75;25.17;;;;;;;16.75;52.61;100442.19;5017644;28;20397;-82
2023/04/23 08:10:27;;;;;;;27.27;25.58;;;;;;;16.82;52.62;100443.50;5015569;28;20034;-80
2023/04/23 08:12:53;;;;;;;27.13;25.42;;;;;;;16.89;52.90;100437.69;5017538;28;20048;-82
2023/04/23 08:15:19;;;;;;;27.52;25.92;;;;;;;16.96;53.15;100432.69;5017202;28;20053;-79
2023/04/23 08:17:44;;;;;;;27.75;26.17;;;;;;;17.03;52.87;100438.63;5016454;28;20036;-79
2023/04/23 08:20:10;;;;;;;27.92;26.33;;;;;;;17.12;53.03;100425.09;5017025;28;20064;-80
2023/04/23 08:22:35;;;;;;;30.73;28.65;;;;;;;17.20;52.92;100429.91;4999388;28;20045;-80
2023/04/23 08:25:01;;;;;;;28.73;27.05;;;;;;;17.28;53.12;100417.50;5016600;28;20040;-79
2023/04/23 08:27:26;;;;;;;28.90;27.15;;;;;;;17.36;53.13;100418.75;5016399;28;20038;-80
2023/04/23 08:29:51;;;;;;;29.05;27.45;;;;;;;17.43;52.97;100422.72;5016571;28;20036;-81
2023/04/23 08:32:17;;;;;;;28.60;26.98;;;;;;;17.51;53.16;100423.97;4999016;28;20113;-78
2023/04/23 08:34:42;;;;;;;30.35;28.55;;;;;;;17.60;53.26;100427.66;5016350;28;20045;-77
2023/04/23 08:37:08;;;;;;;30.10;28.40;;;;;;;17.67;53.08;100433.56;5016350;28;20034;-80
2023/04/23 08:39:33;;;;;;;31.85;29.92;;;;;;;17.76;53.26;100430.97;5016374;28;20120;-80
2023/04/23 08:42:08;;;;;;;29.67;28.08;;;;;;;17.83;53.62;100422.41;5016520;28;20095;-79
2023/04/23 08:44:36;;;;;;;32.47;30.40;;;;;;;17.92;53.46;100426.09;5016797;28;20034;-77
2023/04/23 08:47:06;;;;;;;29.90;28.20;;;;;;;18.01;53.38;100426.22;5013814;28;20041;-79
2023/04/23 08:49:33;;;;;;;33.03;30.92;;;;;;;18.09;53.22;100430.97;5015747;28;20092;-81
2023/04/23 08:52:13;;;;;;;32.53;30.83;;;;;;;18.16;53.41;100423.19;5016183;28;20034;-81
2023/04/23 08:54:42;;;;;;;32.78;30.80;;;;;;;18.24;53.36;100432.63;5015928;28;20026;-79
2023/04/23 08:57:08;;;;;;;32.00;30.00;;;;;;;18.31;53.24;100422.91;5015816;28;20034;-78
2023/04/23 08:59:35;;;;;;;32.65;30.80;;;;;;;18.41;53.16;100429.31;5015897;28;20034;-80
2023/04/23 09:02:06;;;;;;;32.47;30.67;;;;;;;18.49;53.36;100425.88;5016049;28;20152;-80
2023/04/23 09:04:33;;;;;;;32.35;30.52;;;;;;;18.58;53.33;100427.59;5015855;28;20046;-79
2023/04/23 09:06:59;;;;;;;29.48;27.88;;;;;;;18.66;53.65;100428.81;5015642;28;20053;-77
2023/04/23 09:09:28;;;;;;;33.40;31.42;;;;;;;18.74;53.66;100422.63;4998219;28;20108;-78
2023/04/23 09:11:55;;;;;;;32.58;30.48;;;;;;;18.82;53.29;100421.13;5016216;28;20109;-78
2023/04/23 09:14:23;;;;;;;32.35;30.50;;;;;;;18.90;53.54;100422.31;5015417;28;20069;-78
2023/04/23 09:16:49;;;;;;;;;;;;;;;18.94;53.74;100415.94;5014531;28;20026;-78
2023/04/23 09:19:16;;;;;;;33.33;31.42;;;;;;;19.03;53.24;100416.84;5015803;28;19921;-78
2023/04/23 09:21:43;;;;;;;34.55;32.53;;;;;;;19.10;53.43;100413.69;5015452;28;20045;-78
2023/04/23 09:24:11;;;;;;;36.25;33.70;;;;;;;19.15;53.93;100410.00;5014911;28;20501;-80
2023/04/23 09:26:45;;;;;;;35.38;33.03;;;;;;;19.21;53.36;100415.06;5015468;28;20034;-79
2023/04/23 09:29:22;;;;;;;34.05;32.22;;;;;;;19.28;53.58;100414.66;5015349;28;20037;-79
2023/04/23 09:31:55;;;;;;;38.78;32.10;;;;;;;19.34;53.74;100413.41;4997481;28;20116;-80
2023/04/23 09:34:24;;;;;;;34.33;32.42;;;;;;;19.42;53.99;100407.19;5015510;28;20030;-79
2023/04/23 09:36:50;;;;;;;34.67;32.70;;;;;;;19.48;53.59;100412.53;5015041;28;20076;-79
2023/04/23 09:39:18;;;;;;;35.72;33.33;;;;;;;19.54;53.48;100403.09;5015086;28;20061;-79
2023/04/23 09:41:47;;;;;;;34.80;33.10;;;;;;;19.61;53.38;100403.47;5013766;28;20430;-78
2023/04/23 09:44:21;;;;;;;;;;;;;;;19.66;53.68;100400.59;5015402;28;20385;-77
2023/04/23 09:46:47;;;;;;;35.50;33.40;;;;;;;19.71;53.25;100402.44;5015089;28;20445;-77
2023/04/23 09:49:14;;;;;;;34.45;32.45;;;;;;;19.77;53.71;100402.00;5015491;28;20033;-79
2023/04/23 09:51:42;;;;;;;35.67;33.58;;;;;;;19.81;53.82;100404.94;5015622;28;20470;-79
2023/04/23 09:54:20;;;;;;;34.53;32.72;;;;;;;19.84;53.53;100394.13;5015661;28;20551;-76
2023/04/23 09:56:52;;;;;;;36.80;34.90;;;;;;;19.92;53.58;100398.06;5015814;28;20022;-76
2023/04/23 09:59:25;;;;;;;37.80;35.38;;;;;;;19.98;53.57;100396.81;5014586;28;20038;-78
2023/04/23 10:01:51;;;;;;;37.35;34.72;;;;;;;20.04;53.51;100384.56;5015141;28;20030;-76
2023/04/23 10:04:26;;;;;;;37.17;35.22;;;;;;;20.09;53.38;100386.38;5014623;28;20041;-77
2023/04/23 10:06:55;;;;;;;38.25;36.25;;;;;;;20.15;53.56;100374.13;4981204;28;20045;-78
2023/04/23 10:09:23;;;;;;;38.13;36.00;;;;;;;20.19;53.39;100380.63;5015134;28;20113;-76
2023/04/23 10:11:57;;;;;;;39.47;37.17;;;;;;;20.24;53.09;100374.19;4997984;28;20065;-75
2023/04/23 10:14:25;;;;;;;36.55;34.67;;;;;;;20.29;53.45;100376.78;5014141;28;20038;-78
2023/04/23 10:16:56;;;;;;;37.63;35.53;;;;;;;20.34;53.10;100381.31;5014500;28;20033;-79
2023/04/23 10:19:23;;;;;;;36.92;35.13;;;;;;;20.38;53.21;100369.38;5014499;28;20046;-76
2023/04/23 10:21:54;;;;;;;39.95;37.78;;;;;;;20.42;53.12;100373.13;5014521;28;20034;-77
2023/04/23 10:24:23;;;;;;;37.25;35.40;;;;;;;20.47;53.58;100363.94;5014253;28;20057;-76
2023/04/23 10:26:51;;;;;;;38.63;36.53;;;;;;;20.51;53.46;100368.47;5014288;28;20164;-79
2023/04/23 10:29:24;;;;;;;37.97;36.08;;;;;;;20.56;52.98;100367.53;5014019;28;20112;-78
2023/04/23 10:31:51;;;;;;;38.80;36.25;;;;;;;20.61;53.31;100361.88;5014548;28;20034;-78
2023/04/23 10:34:18;;;;;;;41.10;38.90;;;;;;;20.66;52.79;100366.41;5014382;28;20045;-76
2023/04/23 10:36:43;;;;;;;40.25;37.95;;;;;;;20.69;52.72;100350.13;5014378;28;20132;-78
2023/04/23 10:39:09;;;;;;;36.22;34.25;;;;;;;20.72;52.77;100348.69;5014120;28;20459;-76
2023/04/23 10:41:38;;;;;;;38.17;36.28;;;;;;;20.76;53.16;100352.38;5014154;28;20026;-77
2023/04/23 10:44:04;;;;;;;;;;;;;;;20.77;53.15;100347.72;5014301;28;20026;-77
2023/04/23 10:46:31;;;;;;;38.20;36.10;;;;;;;20.81;53.04;100345.94;5013970;28;19920;-77
2023/04/23 10:49:07;;;;;;;38.63;36.28;;;;;;;20.83;52.56;100349.97;5013919;28;20061;-78
2023/04/23 10:51:36;;;;;;;37.85;35.88;;;;;;;20.85;52.70;100336.75;5013927;28;20040;-76
2023/04/23 10:54:04;;;;;;;40.10;38.05;;;;;;;20.89;52.53;100340.47;5014028;28;20140;-75
2023/04/23 10:56:30;;;;;;;38.88;36.67;;;;;;;20.92;52.92;100330.78;5013872;28;20026;-75
2023/04/23 10:58:55;;;;;;;40.28;38.13;;;;;;;20.96;52.58;100321.59;5013701;28;20425;-75
2023/04/23 11:01:26;;;;;;;40.90;38.78;;;;;;;20.99;52.28;100322.88;5014364;28;20030;-74
2023/04/23 11:03:52;;;;;;;40.15;38.15;;;;;;;21.02;52.45;100326.91;5013681;28;20060;-76
2023/04/23 11:06:48;;;;;;;42.00;39.25;;;;;;;21.04;52.18;100317.22;5013752;28;20445;-75